Time;durP1;ratioP1;P1;durP2;ratioP2;P2;SDS_P1;SDS_P2;PMS_P1;PMS_P2;Temp;Humidity;BMP_temperature;BMP_pressure;BME280_temperature;BME280_humidity;BME280_pressure;Samples;Min_cycle;Max_cycle;Signal;HPM_P1;HPM_P2
2022/04/21 00:00:27;;;;;;;16.70;13.55;;;;;;;5.61;82.89;100452.72;5019942;28;20828;-76
2022/04/21 00:02:53;;;;;;;15.48;13.68;;;;;;;5.25;82.82;100415.53;5018426;28;20068;-75
2022/04/21 00:05:19;;;;;;;14.13;12.68;;;;;;;5.16;83.35;100423.13;5001246;28;20045;-76
2022/04/21 00:07:47;;;;;;;15.02;13.50;;;;;;;5.25;82.71;100407.75;5015708;28;20065;-76
2022/04/21 00:10:12;;;;;;;12.38;11.15;;;;;;;5.24;82.83;100423.31;5017276;28;20151;-75
2022/04/21 00:12:38;;;;;;;15.15;11.20;;;;;;;4.76;83.94;100413.56;5019973;28;20509;-75
2022/04/21 00:15:04;;;;;;;15.70;14.10;;;;;;;4.95;83.88;100405.34;5018307;28;20040;-75
2022/04/21 00:17:30;;;;;;;16.50;12.82;;;;;;;5.21;84.03;100455.34;5018588;28;20164;-74
2022/04/21 00:19:58;;;;;;;15.52;13.93;;;;;;;5.24;83.97;100455.41;5016847;28;20103;-74
2022/04/21 00:25:09;;;;;;;15.55;13.23;;;;;;;5.04;83.37;100402.06;5012303;28;20077;-74
2022/04/21 00:27:43;;;;;;;16.35;14.65;;;;;;;5.44;82.97;100439.34;5016301;28;20041;-74
2022/04/21 00:30:10;;;;;;;15.02;13.55;;;;;;;5.23;83.85;100442.38;5018085;28;20036;-74
2022/04/21 00:32:37;;;;;;;16.48;14.73;;;;;;;5.10;83.24;100414.31;4999659;28;20057;-74
2022/04/21 00:35:04;;;;;;;16.23;14.10;;;;;;;5.17;84.15;100440.50;5016397;28;20045;-74
2022/04/21 00:37:29;;;;;;;14.55;12.88;;;;;;;5.10;83.48;100419.53;5010550;28;20088;-74
2022/04/21 00:40:01;;;;;;;16.17;14.00;;;;;;;5.22;83.17;100415.50;4993577;28;20065;-76
2022/04/21 00:42:26;;;;;;;22.10;16.10;;;;;;;5.09;83.31;100421.25;4996560;28;20029;-74
2022/04/21 00:44:52;;;;;;;17.63;15.68;;;;;;;5.10;83.43;100435.13;4995526;28;20060;-74
2022/04/21 00:47:19;;;;;;;17.10;15.32;;;;;;;4.97;83.70;100441.78;4979933;28;20038;-74
2022/04/21 00:49:46;;;;;;;18.75;15.52;;;;;;;4.85;84.42;100416.38;4994275;28;20052;-74
2022/04/21 00:52:14;;;;;;;18.65;16.90;;;;;;;5.06;84.22;100465.41;4996654;28;20069;-74
2022/04/21 00:54:42;;;;;;;17.13;15.32;;;;;;;4.70;83.62;100419.47;4990176;28;20029;-75
2022/04/21 00:57:08;;;;;;;17.17;15.13;;;;;;;4.53;84.13;100418.22;4979874;28;20120;-73
2022/04/21 00:59:35;;;;;;;19.13;15.27;;;;;;;4.62;84.70;100444.41;4966734;28;20049;-75
2022/04/21 01:04:46;;;;;;;16.50;14.20;;;;;;;4.68;84.31;100431.56;4997793;28;20052;-74
2022/04/21 01:07:11;;;;;;;15.80;14.25;;;;;;;4.93;84.43;100471.16;4995801;28;20062;-74
2022/04/21 01:09:38;;;;;;;15.75;14.05;;;;;;;4.34;84.95;100429.88;4997684;28;20032;-74
2022/04/21 01:12:13;;;;;;;15.43;13.88;;;;;;;4.63;85.66;100439.25;4995237;28;20464;-74
2022/04/21 01:14:39;;;;;;;15.00;12.93;;;;;;;4.91;84.76;100449.44;4997635;28;20569;-73
2022/04/21 01:17:12;;;;;;;14.18;12.77;;;;;;;4.71;84.88;100444.66;4996959;28;20057;-73
2022/04/21 01:19:38;;;;;;;20.48;15.05;;;;;;;4.66;85.30;100428.06;4994987;28;20044;-74
2022/04/21 01:22:07;;;;;;;18.27;13.57;;;;;;;4.55;84.88;100416.53;4980902;28;20041;-74
2022/04/21 01:24:33;;;;;;;14.75;13.15;;;;;;;4.74;85.16;100428.25;4999764;28;20038;-74
2022/04/21 01:27:01;;;;;;;14.32;12.80;;;;;;;4.65;85.11;100418.50;4982291;28;20030;-75
2022/04/21 01:29:27;;;;;;;15.48;13.38;;;;;;;4.93;84.81;100468.56;5003630;28;20057;-75
2022/04/21 01:31:55;;;;;;;15.10;12.55;;;;;;;4.64;84.73;100435.81;4978231;28;20806;-75
2022/04/21 01:34:21;;;;;;;15.63;12.30;;;;;;;4.59;84.65;100440.03;4994675;28;20039;-75
2022/04/21 01:42:15;;;;;;;13.45;12.10;;;;;;;4.67;84.34;100445.41;4984168;28;20049;-74
2022/04/21 01:44:41;;;;;;;20.92;11.65;;;;;;;4.43;84.19;100443.09;5002622;28;20050;-75
2022/04/21 01:47:08;;;;;;;13.60;12.18;;;;;;;4.41;84.79;100471.63;4989795;28;20165;-75
2022/04/21 01:49:36;;;;;;;15.90;13.73;;;;;;;4.46;85.04;100470.84;4998522;28;20484;-75
2022/04/21 01:52:02;;;;;;;15.50;13.75;;;;;;;4.18;85.37;100446.75;5000090;28;20054;-74
2022/04/21 01:54:28;;;;;;;14.70;13.15;;;;;;;4.55;85.41;100497.94;5003220;28;20044;-74
2022/04/21 01:56:53;;;;;;;16.23;13.68;;;;;;;4.55;85.10;100495.34;4984265;28;20117;-74
2022/04/21 01:59:19;;;;;;;17.35;14.85;;;;;;;4.41;85.29;100483.72;4968236;28;20106;-74
2022/04/21 02:01:44;;;;;;;17.70;14.60;;;;;;;4.35;85.35;100478.38;5003654;28;20049;-75
2022/04/21 02:04:10;;;;;;;17.83;14.85;;;;;;;4.12;86.14;100462.16;4988094;28;20038;-74
2022/04/21 02:06:36;;;;;;;18.92;15.45;;;;;;;4.19;86.03;100471.88;4984474;28;20030;-75
2022/04/21 02:09:01;;;;;;;16.63;14.60;;;;;;;4.30;86.04;100480.84;5004720;28;20049;-74
2022/04/21 02:11:28;;;;;;;18.02;15.82;;;;;;;4.27;86.28;100465.19;4985156;28;20089;-75
2022/04/21 02:13:53;;;;;;;16.17;14.52;;;;;;;3.85;87.11;100462.31;5004247;28;20132;-75
2022/04/21 02:16:19;;;;;;;18.45;14.52;;;;;;;3.96;87.25;100479.06;5002338;28;20374;-75
2022/04/21 02:18:44;;;;;;;19.00;15.55;;;;;;;4.25;87.19;100498.03;4969267;28;20041;-75
2022/04/21 02:21:11;;;;;;;17.30;14.93;;;;;;;4.33;86.89;100509.50;5003217;28;20470;-75
2022/04/21 02:23:37;;;;;;;18.33;15.88;;;;;;;4.51;87.10;100508.22;5001534;28;20441;-75
2022/04/21 02:26:02;;;;;;;16.83;13.30;;;;;;;4.60;86.70;100521.47;5003107;28;20034;-74
2022/04/21 02:28:28;;;;;;;17.17;14.25;;;;;;;4.39;87.48;100514.84;5000331;28;20105;-74
2022/04/21 02:30:54;;;;;;;19.55;15.70;;;;;;;4.47;86.85;100496.00;4984007;28;20140;-75
2022/04/21 02:33:20;;;;;;;20.48;13.95;;;;;;;4.25;86.53;100465.97;5003291;28;20473;-74
2022/04/21 02:35:47;;;;;;;19.23;15.57;;;;;;;4.14;87.42;100469.16;5003501;28;20042;-74
2022/04/21 02:38:13;;;;;;;18.35;14.32;;;;;;;3.67;87.16;100392.59;5003686;28;20053;-74
2022/04/21 02:40:38;;;;;;;27.83;15.95;;;;;;;4.13;87.40;100484.72;4981881;28;20053;-74
2022/04/21 02:43:05;;;;;;;17.00;14.65;;;;;;;4.37;87.80;100526.91;4985587;28;20035;-74
2022/04/21 02:45:30;;;;;;;17.55;14.25;;;;;;;4.15;87.97;100475.25;4999958;28;20034;-74
2022/04/21 02:47:57;;;;;;;18.02;14.70;;;;;;;3.99;87.51;100476.53;4984947;28;20057;-75
2022/04/21 02:50:23;;;;;;;18.73;14.77;;;;;;;3.93;88.08;100464.28;4983140;28;20492;-74
2022/04/21 02:52:49;;;;;;;17.42;15.30;;;;;;;4.34;87.99;100518.19;4981060;28;20058;-74
2022/04/21 02:57:59;;;;;;;20.08;16.05;;;;;;;4.37;87.91;100526.91;4999008;28;20508;-74
2022/04/21 03:00:26;;;;;;;17.40;14.18;;;;;;;4.27;87.88;100524.91;4983135;28;20026;-73
2022/04/21 03:02:52;;;;;;;15.95;14.07;;;;;;;4.14;87.76;100526.28;4999451;28;20038;-74
2022/04/21 03:05:17;;;;;;;18.48;14.85;;;;;;;4.41;87.76;100520.09;5000034;28;20085;-74
2022/04/21 03:07:44;;;;;;;19.40;14.88;;;;;;;4.42;87.73;100524.44;4999171;28;20456;-75
2022/04/21 03:10:10;;;;;;;22.42;16.88;;;;;;;4.21;87.55;100483.19;4971979;28;20056;-75
2022/04/21 03:12:35;;;;;;;21.13;14.88;;;;;;;3.98;87.31;100475.69;4980415;28;20026;-75
2022/04/21 03:15:02;;;;;;;19.70;15.50;;;;;;;4.17;88.27;100525.53;5001053;28;20053;-75
2022/04/21 03:17:29;;;;;;;18.92;15.52;;;;;;;4.20;88.11;100490.09;5002549;28;20041;-74
2022/04/21 03:19:55;;;;;;;17.05;13.27;;;;;;;4.22;88.45;100518.72;5002609;28;20045;-74
2022/04/21 03:25:07;;;;;;;14.90;12.98;;;;;;;4.13;88.13;100506.38;4996697;28;20064;-75
2022/04/21 03:27:33;;;;;;;21.67;17.85;;;;;;;4.17;88.13;100505.63;4984196;28;20038;-74
2022/04/21 03:30:00;;;;;;;16.63;14.50;;;;;;;4.06;87.87;100491.44;4985007;28;20029;-74
2022/04/21 03:32:26;;;;;;;22.08;15.13;;;;;;;4.55;87.88;100536.94;4982034;28;20059;-74
2022/04/21 03:34:53;;;;;;;18.40;15.02;;;;;;;4.42;87.20;100519.25;4999423;28;20065;-74
2022/04/21 03:37:33;;;;;;;20.13;14.82;;;;;;;4.47;87.92;100537.56;4974397;28;20137;-74
2022/04/21 03:39:59;;;;;;;18.80;16.80;;;;;;;4.18;87.58;100498.69;4994486;28;20089;-74
2022/04/21 03:42:31;;;;;;;21.88;17.30;;;;;;;4.26;87.31;100511.88;4996847;28;20049;-75
2022/04/21 03:44:57;;;;;;;17.37;15.27;;;;;;;4.09;87.89;100508.84;4977732;28;20061;-75
2022/04/21 03:47:23;;;;;;;18.33;14.15;;;;;;;3.94;88.23;100470.34;4997120;28;20054;-73
2022/04/21 03:49:49;;;;;;;27.02;16.92;;;;;;;4.17;88.16;100515.13;4976028;28;20042;-75
2022/04/21 03:52:14;;;;;;;24.15;17.23;;;;;;;4.05;88.77;100535.53;4995582;28;20049;-74
2022/04/21 03:54:40;;;;;;;22.42;14.93;;;;;;;4.36;88.82;100545.97;4993323;28;20165;-74
2022/04/21 03:57:07;;;;;;;17.52;15.60;;;;;;;4.48;87.86;100537.59;4997522;28;20030;-74
2022/04/21 03:59:33;;;;;;;17.35;14.43;;;;;;;4.61;87.48;100537.09;4992427;28;20517;-75
2022/04/21 04:02:04;;;;;;;23.05;17.63;;;;;;;4.35;87.15;100499.16;4996698;28;20050;-74
2022/04/21 04:04:34;;;;;;;23.83;17.58;;;;;;;4.25;87.01;100489.34;4960312;28;20053;-74
2022/04/21 04:12:34;;;;;;;23.00;16.35;;;;;;;4.63;87.05;100548.38;4994112;28;20076;-75
2022/04/21 04:15:01;;;;;;;22.98;19.10;;;;;;;4.51;87.26;100536.81;4993432;28;20544;-74
2022/04/21 04:17:28;;;;;;;23.75;18.73;;;;;;;4.38;87.10;100513.09;4989162;28;20049;-74
2022/04/21 04:20:00;;;;;;;22.50;18.88;;;;;;;4.50;86.83;100537.66;4991396;28;20059;-74
2022/04/21 04:22:26;;;;;;;22.40;17.48;;;;;;;4.34;86.99;100500.00;4974020;28;20054;-74
2022/04/21 04:24:54;;;;;;;28.00;19.25;;;;;;;4.31;87.03;100500.78;4991252;28;20167;-74
2022/04/21 04:27:23;;;;;;;22.92;18.70;;;;;;;4.97;86.53;100548.41;5000650;28;20474;-74
2022/04/21 04:29:49;;;;;;;23.05;19.40;;;;;;;4.94;86.10;100541.41;4990666;28;20049;-74
2022/04/21 04:32:19;;;;;;;23.00;18.45;;;;;;;4.63;86.14;100503.34;4994750;28;20058;-75
2022/04/21 04:34:45;;;;;;;22.30;17.85;;;;;;;4.79;85.80;100512.41;4978188;28;20040;-75
2022/04/21 04:37:10;;;;;;;23.88;18.15;;;;;;;5.13;85.44;100544.41;4993312;28;20046;-75
2022/04/21 04:39:36;;;;;;;23.63;17.52;;;;;;;4.73;85.49;100507.03;5010928;28;20045;-75
2022/04/21 04:42:16;;;;;;;24.65;17.88;;;;;;;4.95;85.74;100544.88;5001619;28;20481;-75
2022/04/21 04:44:44;;;;;;;23.67;16.58;;;;;;;4.49;85.74;100492.59;5016959;28;20080;-76
2022/04/21 04:47:09;;;;;;;29.17;17.75;;;;;;;4.55;86.31;100494.47;4999522;28;20041;-76
2022/04/21 04:49:35;;;;;;;25.60;19.38;;;;;;;4.68;85.78;100519.91;5000777;28;20080;-76
2022/04/21 04:52:00;;;;;;;34.85;20.38;;;;;;;4.65;86.07;100528.53;5015616;28;20045;-76
2022/04/21 04:54:29;;;;;;;26.85;18.77;;;;;;;4.38;86.26;100494.06;5016990;28;20135;-76
2022/04/21 04:56:55;;;;;;;24.58;19.77;;;;;;;4.63;87.01;100535.41;4976381;28;20169;-76
2022/04/21 04:59:21;;;;;;;26.25;19.40;;;;;;;4.92;86.06;100509.28;4999527;28;20144;-74
2022/04/21 05:01:46;;;;;;;24.42;18.85;;;;;;;4.87;85.10;100513.50;5016249;28;20132;-75
2022/04/21 05:04:19;;;;;;;30.92;19.77;;;;;;;5.02;85.35;100498.25;5017397;28;20096;-74
2022/04/21 05:06:50;;;;;;;27.25;19.80;;;;;;;5.43;84.96;100546.88;5000796;28;20037;-74
2022/04/21 05:09:23;;;;;;;24.20;17.90;;;;;;;5.56;84.27;100535.03;5016039;28;20029;-74
2022/04/21 05:11:54;;;;;;;31.02;19.17;;;;;;;5.50;83.62;100549.66;4997107;28;20584;-74
2022/04/21 05:14:21;;;;;;;37.65;17.73;;;;;;;5.56;83.37;100553.25;5016168;28;20042;-74
2022/04/21 05:16:47;;;;;;;22.65;17.63;;;;;;;5.09;84.01;100509.69;5019972;28;20041;-74
2022/04/21 05:19:16;;;;;;;20.95;17.15;;;;;;;5.29;82.92;100512.72;5011753;28;20045;-75
2022/04/21 05:21:43;;;;;;;25.38;17.33;;;;;;;4.73;84.98;100520.03;5000332;28;20029;-76
2022/04/21 05:24:10;;;;;;;21.45;16.48;;;;;;;5.24;83.65;100519.53;5016146;28;20042;-76
2022/04/21 05:26:40;;;;;;;21.92;15.50;;;;;;;5.58;82.23;100495.19;5014358;28;20091;-75
2022/04/21 05:31:55;;;;;;;23.88;19.05;;;;;;;6.46;79.91;100541.22;5014967;28;20140;-75
2022/04/21 05:34:22;;;;;;;26.10;18.15;;;;;;;6.77;78.84;100540.06;5016204;28;20041;-75
2022/04/21 05:36:48;;;;;;;26.60;19.17;;;;;;;6.73;78.21;100505.22;5016108;28;20037;-76
2022/04/21 05:39:14;;;;;;;23.63;18.27;;;;;;;6.61;77.99;100515.44;5019271;28;20075;-76
2022/04/21 05:41:40;;;;;;;26.98;17.73;;;;;;;7.22;76.60;100502.53;5016905;28;20029;-74
2022/04/21 05:44:07;;;;;;;24.77;19.83;;;;;;;7.24;76.29;100547.81;4987094;28;20042;-70
2022/04/21 05:46:32;;;;;;;25.20;17.90;;;;;;;6.65;77.04;100511.16;5006334;28;20033;-69
2022/04/21 05:48:58;;;;;;;26.42;19.73;;;;;;;7.04;77.91;100533.56;4999255;28;25838;-68
2022/04/21 05:51:24;;;;;;;29.48;20.23;;;;;;;6.85;77.99;100527.16;5016235;28;20568;-68
2022/04/21 05:53:52;;;;;;;27.00;19.33;;;;;;;7.04;76.91;100507.47;4996852;28;20135;-68
2022/04/21 05:56:18;;;;;;;27.63;21.13;;;;;;;6.57;77.68;100516.25;5018957;28;20049;-68
2022/04/21 05:58:44;;;;;;;24.50;20.02;;;;;;;6.28;77.53;100521.81;5020158;28;20050;-69
2022/04/21 06:01:10;;;;;;;23.27;19.38;;;;;;;6.48;78.59;100516.06;5020227;28;20333;-69
2022/04/21 06:03:37;;;;;;;24.15;19.33;;;;;;;6.57;78.35;100536.22;5019970;28;20038;-68
2022/04/21 06:06:04;;;;;;;27.63;20.55;;;;;;;6.81;77.28;100517.50;5021317;28;20029;-68
2022/04/21 06:08:29;;;;;;;25.40;19.80;;;;;;;7.05;76.83;100517.06;5019796;28;20069;-68
2022/04/21 06:10:58;;;;;;;22.90;19.65;;;;;;;6.25;78.25;100539.09;5018307;28;20556;-68
2022/04/21 06:13:27;;;;;;;24.20;18.90;;;;;;;6.67;77.31;100535.53;4999979;28;20116;-68
2022/04/21 06:15:53;;;;;;;22.20;17.90;;;;;;;7.03;76.17;100514.41;5016378;28;20053;-68
2022/04/21 06:18:20;;;;;;;28.88;22.00;;;;;;;7.07;76.49;100550.16;5020305;28;20069;-69
2022/04/21 06:20:46;;;;;;;29.40;18.05;;;;;;;7.27;77.06;100553.06;5017000;28;20042;-69
2022/04/21 06:23:12;;;;;;;24.92;19.70;;;;;;;6.66;77.69;100541.59;5016927;28;20124;-69
2022/04/21 06:25:38;;;;;;;23.77;19.98;;;;;;;6.47;78.03;100537.78;5019498;28;20049;-69
2022/04/21 06:28:04;;;;;;;30.40;20.42;;;;;;;6.83;77.93;100576.66;5018207;28;20482;-68
2022/04/21 06:30:30;;;;;;;22.00;18.52;;;;;;;6.40;78.05;100547.22;5016446;28;20083;-68
2022/04/21 06:32:55;;;;;;;27.48;18.80;;;;;;;6.89;76.80;100519.41;5019129;28;20042;-68
2022/04/21 06:35:21;;;;;;;30.17;22.42;;;;;;;7.37;76.14;100572.34;5017939;28;20116;-68
2022/04/21 06:37:47;;;;;;;24.70;19.45;;;;;;;7.58;75.04;100585.72;4999043;28;20477;-68
2022/04/21 06:40:13;;;;;;;22.40;20.05;;;;;;;7.06;76.56;100544.91;5006557;28;20052;-68
2022/04/21 06:42:42;;;;;;;28.13;21.85;;;;;;;7.28;75.96;100590.47;5016476;28;20460;-68
2022/04/21 06:48:04;;;;;;;30.23;22.48;;;;;;;6.51;78.71;100586.53;5016742;28;20752;-68
2022/04/21 06:50:38;;;;;;;21.52;18.15;;;;;;;6.97;77.54;100524.75;5001502;28;20471;-68
2022/04/21 06:53:08;;;;;;;26.67;19.92;;;;;;;7.34;76.32;100570.56;5000100;28;20045;-70
2022/04/21 06:55:34;;;;;;;32.72;20.55;;;;;;;6.57;77.69;100515.38;5018037;28;20045;-68
2022/04/21 06:58:01;;;;;;;22.50;17.63;;;;;;;7.28;76.85;100551.31;5015139;28;20062;-68
2022/04/21 07:00:27;;;;;;;24.77;19.20;;;;;;;7.13;75.94;100531.97;5019508;28;20116;-67
2022/04/21 07:02:55;;;;;;;24.02;19.45;;;;;;;7.79;75.48;100569.47;5017145;28;20049;-67
2022/04/21 07:05:22;;;;;;;25.55;18.73;;;;;;;7.63;74.67;100528.34;5016778;28;20061;-67
2022/04/21 07:07:48;;;;;;;22.90;18.63;;;;;;;7.50;75.53;100544.72;4997728;28;20056;-68
2022/04/21 07:10:14;;;;;;;25.83;17.80;;;;;;;7.54;74.97;100560.44;5017645;28;20577;-67
2022/04/21 07:12:39;;;;;;;21.45;18.98;;;;;;;7.85;74.77;100539.09;5016031;28;20033;-68
2022/04/21 07:15:08;;;;;;;23.02;17.70;;;;;;;7.71;74.46;100542.41;5015789;28;20029;-68
2022/04/21 07:17:34;;;;;;;30.98;18.23;;;;;;;7.72;74.67;100544.13;5015682;28;20045;-68
2022/04/21 07:20:02;;;;;;;22.80;18.48;;;;;;;7.50;74.25;100547.31;5016071;28;20151;-68
2022/04/21 07:22:29;;;;;;;25.20;18.17;;;;;;;7.87;73.81;100560.91;4997432;28;20049;-68
2022/04/21 07:24:55;;;;;;;23.20;19.73;;;;;;;8.06;73.64;100562.00;5011359;28;20053;-68
2022/04/21 07:27:22;;;;;;;23.80;16.90;;;;;;;7.70;73.79;100569.38;5011909;28;20041;-68
2022/04/21 07:29:47;;;;;;;24.77;18.83;;;;;;;8.42;73.43;100596.44;5015563;28;20073;-68
2022/04/21 07:32:13;;;;;;;21.27;18.13;;;;;;;8.30;74.04;100579.72;4999877;28;20057;-70
2022/04/21 07:34:38;;;;;;;26.75;20.00;;;;;;;8.27;73.45;100543.97;5017760;28;20042;-68
2022/04/21 07:37:05;;;;;;;22.65;18.85;;;;;;;8.31;73.17;100550.09;5010416;28;20049;-68
2022/04/21 07:39:31;;;;;;;29.65;20.25;;;;;;;8.58;72.35;100571.34;5019233;28;20455;-68
2022/04/21 07:41:58;;;;;;;22.77;17.33;;;;;;;8.55;72.11;100588.78;5016655;28;20493;-69
2022/04/21 07:44:25;;;;;;;25.48;17.58;;;;;;;8.28;72.09;100537.88;5018087;28;20057;-68
2022/04/21 07:46:50;;;;;;;22.40;16.52;;;;;;;8.57;71.32;100538.22;5020169;28;20038;-68
2022/04/21 07:54:44;;;;;;;23.30;19.33;;;;;;;8.96;71.10;100594.41;5015591;28;20121;-69
2022/04/21 07:57:10;;;;;;;22.90;17.85;;;;;;;8.91;72.04;100553.38;5014096;28;20040;-68
2022/04/21 07:59:36;;;;;;;30.77;19.90;;;;;;;9.05;70.16;100562.22;5017160;28;20050;-70
2022/04/21 08:02:03;;;;;;;25.67;19.42;;;;;;;8.98;70.00;100556.03;5014401;28;20056;-68
2022/04/21 08:04:30;;;;;;;22.63;20.05;;;;;;;8.56;70.28;100543.44;4998896;28;20540;-68
2022/04/21 08:06:57;;;;;;;24.88;18.65;;;;;;;8.81;70.06;100589.91;5016288;28;20470;-67
2022/04/21 08:09:22;;;;;;;25.55;21.38;;;;;;;9.05;70.46;100547.38;5015475;28;20030;-68
2022/04/21 08:11:48;;;;;;;28.25;19.63;;;;;;;9.32;70.28;100535.38;5013831;28;20048;-67
2022/04/21 08:14:16;;;;;;;29.17;21.73;;;;;;;9.39;69.64;100559.84;5015671;28;20101;-68
2022/04/21 08:16:42;;;;;;;25.05;22.08;;;;;;;9.65;69.44;100565.28;5016354;28;20040;-68
2022/04/21 08:19:08;;;;;;;27.63;20.58;;;;;;;9.63;68.20;100562.66;5012882;28;20045;-68
2022/04/21 08:21:34;;;;;;;25.00;19.80;;;;;;;9.91;67.68;100587.28;4997314;28;20025;-68
2022/04/21 08:32:33;;;;;;;26.38;20.17;;;;;;;9.86;67.71;100530.47;5014666;28;20037;-68
2022/04/21 08:32:43;;;;;;;22.85;19.25;;;;;;;10.49;66.23;100555.19;4999907;28;20040;-68
2022/04/21 08:35:09;;;;;;;25.80;18.92;;;;;;;9.99;65.82;100515.66;5014765;28;20049;-68
2022/04/21 08:37:36;;;;;;;20.67;17.60;;;;;;;10.45;66.30;100570.94;5014323;28;20042;-68
2022/04/21 08:40:10;;;;;;;25.17;19.05;;;;;;;10.59;66.46;100565.72;5015462;28;20057;-68
2022/04/21 08:42:41;;;;;;;20.30;18.20;;;;;;;10.76;65.71;100556.13;4998560;28;20496;-67
2022/04/21 08:45:12;;;;;;;22.40;17.48;;;;;;;10.63;65.46;100525.47;5017086;28;20032;-67
2022/04/21 08:47:46;;;;;;;21.10;18.67;;;;;;;10.73;63.07;100554.38;5012169;28;20038;-67
2022/04/21 08:50:14;;;;;;;20.67;16.05;;;;;;;10.77;63.43;100529.88;4996582;28;20065;-68
2022/04/21 08:52:41;;;;;;;19.38;15.63;;;;;;;11.11;60.40;100544.78;5015299;28;20489;-67
2022/04/21 08:55:08;;;;;;;16.17;14.18;;;;;;;11.15;59.92;100549.16;5013937;28;20037;-67
2022/04/21 08:57:37;;;;;;;22.85;14.68;;;;;;;11.35;59.07;100555.25;5012945;28;20068;-68
2022/04/21 09:00:08;;;;;;;19.48;14.10;;;;;;;11.21;58.44;100520.25;5014994;28;20503;-68
2022/04/21 09:02:35;;;;;;;16.55;12.90;;;;;;;11.68;57.73;100555.22;5015532;28;20047;-68
2022/04/21 09:05:02;;;;;;;14.02;12.05;;;;;;;11.84;57.04;100560.41;5013753;28;20616;-68
2022/04/21 09:07:27;;;;;;;13.15;11.73;;;;;;;11.90;58.84;100499.09;4998281;28;20037;-68
2022/04/21 09:10:01;;;;;;;19.02;13.30;;;;;;;12.02;56.77;100538.47;4994128;28;20164;-68
2022/04/21 09:12:27;;;;;;;17.45;13.05;;;;;;;12.32;57.46;100504.16;5014902;28;20038;-69
2022/04/21 09:14:53;;;;;;;16.75;11.80;;;;;;;12.54;55.98;100539.13;5016098;28;20045;-68
2022/04/21 09:17:18;;;;;;;16.02;12.13;;;;;;;12.27;55.56;100480.50;5014542;28;20049;-67
2022/04/21 09:20:00;;;;;;;15.50;11.88;;;;;;;12.95;54.31;100536.19;5013014;28;20160;-68
2022/04/21 09:22:31;;;;;;;18.17;11.43;;;;;;;12.86;54.40;100507.31;5013612;28;20124;-68
2022/04/21 09:24:58;;;;;;;15.65;11.75;;;;;;;13.26;54.11;100499.91;5016986;28;20116;-68
2022/04/21 09:27:24;;;;;;;11.73;10.50;;;;;;;13.38;54.34;100498.09;5017351;28;20151;-68
2022/04/21 09:29:50;;;;;;;16.92;12.50;;;;;;;13.72;53.48;100528.47;5014088;28;21407;-68
2022/04/21 09:32:20;;;;;;;12.40;10.15;;;;;;;13.95;53.63;100514.13;5014921;28;20064;-68
2022/04/21 09:34:50;;;;;;;12.10;10.07;;;;;;;13.99;48.83;100520.25;4997867;28;20048;-68
2022/04/21 09:37:20;;;;;;;11.65;8.38;;;;;;;13.92;49.24;100493.94;4997072;28;20065;-68
2022/04/21 09:39:52;;;;;;;19.65;14.60;;;;;;;14.03;52.18;100506.16;5004082;28;20057;-68
2022/04/21 09:42:25;;;;;;;23.65;12.07;;;;;;;14.56;51.65;100491.34;5001531;28;20046;-68
2022/04/21 09:47:35;;;;;;;12.77;10.27;;;;;;;15.25;48.70;100527.22;5014517;28;20052;-68
2022/04/21 09:50:12;;;;;;;13.20;10.43;;;;;;;14.98;48.27;100481.88;5016353;28;20045;-68
2022/04/21 09:52:38;;;;;;;21.98;10.45;;;;;;;15.40;47.88;100476.72;4995770;28;20045;-68
2022/04/21 09:55:32;;;;;;;12.85;10.25;;;;;;;15.81;48.86;100514.75;5015486;28;20041;-68
2022/04/21 09:58:06;;;;;;;15.35;10.05;;;;;;;16.13;49.58;100472.63;4995249;28;20046;-67
2022/04/21 10:00:34;;;;;;;11.73;8.85;;;;;;;17.01;49.43;100490.88;4996371;28;20108;-68
2022/04/21 10:03:00;;;;;;;9.95;8.68;;;;;;;16.55;45.92;100480.50;4997665;28;20032;-69
2022/04/21 10:05:26;;;;;;;17.67;9.13;;;;;;;16.13;47.03;100472.63;5014660;28;20623;-67
2022/04/21 10:07:53;;;;;;;10.13;8.02;;;;;;;16.81;45.80;100490.50;5015297;28;20045;-68
2022/04/21 10:10:19;;;;;;;10.65;9.25;;;;;;;16.91;46.82;100456.72;5013137;28;20068;-68
2022/04/21 10:12:44;;;;;;;10.73;8.73;;;;;;;17.48;46.72;100478.13;5015226;28;20712;-69
2022/04/21 10:15:10;;;;;;;10.35;9.13;;;;;;;16.89;45.00;100459.38;4998251;28;20047;-69
2022/04/21 10:17:37;;;;;;;12.02;8.40;;;;;;;17.05;44.80;100481.09;5013663;28;20103;-68
2022/04/21 10:20:03;;;;;;;9.18;7.85;;;;;;;16.58;45.12;100473.34;5015686;28;20133;-68
2022/04/21 10:22:33;;;;;;;11.10;9.00;;;;;;;17.16;47.66;100462.22;5018039;28;20495;-68
2022/04/21 10:25:01;;;;;;;16.02;8.52;;;;;;;15.71;46.10;100455.00;4996272;28;20486;-68
2022/04/21 10:27:44;;;;;;;9.40;8.05;;;;;;;15.80;46.41;100454.81;5016336;28;20033;-69
2022/04/21 10:30:30;;;;;;;;;;;;;;;16.62;46.51;100456.50;5013917;28;20061;-69
2022/04/21 10:32:57;;;;;;;9.10;7.93;;;;;;;16.24;45.93;100468.81;4999209;28;19921;-69
2022/04/21 10:35:28;;;;;;;10.75;7.60;;;;;;;16.33;45.77;100453.66;5020025;28;20587;-69
2022/04/21 10:38:12;;;;;;;11.55;8.65;;;;;;;16.74;45.74;100476.50;5017757;28;20402;-68
2022/04/21 10:40:55;;;;;;;11.93;8.85;;;;;;;16.70;45.74;100436.88;4980265;28;20053;-68
2022/04/21 10:43:20;;;;;;;9.40;8.15;;;;;;;15.24;46.36;100443.53;4997151;28;20050;-68
2022/04/21 10:46:05;;;;;;;13.82;8.90;;;;;;;16.21;44.89;100490.09;5000295;28;20522;-68
2022/04/21 10:48:41;;;;;;;9.80;8.35;;;;;;;16.41;46.34;100436.69;5001729;28;21065;-70
2022/04/21 10:51:07;;;;;;;18.27;8.43;;;;;;;15.96;45.05;100473.84;4999317;28;20050;-68
2022/04/21 10:59:31;;;;;;;11.60;8.98;;;;;;;15.83;44.86;100441.50;4999818;28;20076;-68
2022/04/21 11:02:17;;;;;;;9.20;7.43;;;;;;;15.56;46.95;100442.88;4999497;28;20129;-68
2022/04/21 11:04:43;;;;;;;10.68;8.77;;;;;;;15.12;48.31;100484.25;4998643;28;20132;-68
2022/04/21 11:07:12;;;;;;;20.42;8.52;;;;;;;15.70;47.18;100473.50;4999126;28;20437;-68
2022/04/21 11:09:48;;;;;;;8.82;6.93;;;;;;;15.87;46.33;100433.47;4997820;28;20469;-68
2022/04/21 11:12:16;;;;;;;14.75;9.60;;;;;;;15.50;47.61;100481.81;4992096;28;20030;-69
2022/04/21 11:14:42;;;;;;;12.35;8.30;;;;;;;15.76;46.50;100450.47;4999766;28;20053;-68
2022/04/21 11:17:09;;;;;;;13.45;8.70;;;;;;;15.83;45.84;100470.59;4996603;28;20046;-68
2022/04/21 11:19:50;;;;;;;14.02;9.02;;;;;;;15.84;47.36;100431.78;4999401;28;20081;-68
2022/04/21 11:22:35;;;;;;;15.98;9.27;;;;;;;16.01;48.37;100452.56;4963563;28;20049;-69
2022/04/21 11:25:03;;;;;;;14.02;8.02;;;;;;;15.68;43.98;100449.72;4996087;28;20466;-70
2022/04/21 11:27:29;;;;;;;11.25;6.15;;;;;;;15.80;44.44;100473.31;5000816;28;20037;-69
2022/04/21 11:30:00;;;;;;;8.75;6.65;;;;;;;15.79;45.20;100478.63;4995132;28;20050;-68
2022/04/21 11:32:25;;;;;;;9.10;6.30;;;;;;;15.20;45.89;100477.06;5000033;28;20046;-68
2022/04/21 11:35:01;;;;;;;6.88;5.88;;;;;;;15.09;47.47;100472.88;4999173;28;20041;-68
2022/04/21 11:37:46;;;;;;;16.50;8.77;;;;;;;15.19;46.55;100440.09;4979870;28;20034;-68
2022/04/21 11:40:38;;;;;;;9.77;7.00;;;;;;;15.26;46.97;100430.28;5012572;28;20045;-68
2022/04/21 11:43:13;;;;;;;14.98;8.70;;;;;;;15.44;46.88;100411.41;5016383;28;20037;-69
2022/04/21 11:45:40;;;;;;;7.90;5.97;;;;;;;15.24;46.60;100437.34;5016103;28;20083;-69
2022/04/21 11:48:12;;;;;;;10.23;6.88;;;;;;;15.60;46.45;100444.59;5020669;28;20026;-69
2022/04/21 11:50:41;;;;;;;8.35;5.53;;;;;;;15.50;46.00;100453.63;5016067;28;20080;-70
2022/04/21 11:53:15;;;;;;;7.28;5.07;;;;;;;15.10;45.44;100406.78;4982226;28;20037;-68
2022/04/21 11:55:41;;;;;;;9.45;6.07;;;;;;;15.55;44.14;100421.78;4997580;28;20104;-68
2022/04/21 11:58:06;;;;;;;10.13;5.80;;;;;;;15.61;43.52;100432.22;4981578;28;20069;-68
2022/04/21 12:08:46;;;;;;;10.02;5.07;;;;;;;15.70;45.12;100405.59;5013931;28;20351;-68
2022/04/21 12:11:14;;;;;;;6.93;5.20;;;;;;;15.50;44.40;100400.72;5016447;28;20048;-69
2022/04/21 12:13:41;;;;;;;6.38;4.45;;;;;;;15.39;44.07;100414.16;4999794;28;20552;-69
2022/04/21 12:16:44;;;;;;;7.18;4.10;;;;;;;15.13;42.49;100406.72;5016570;28;20124;-69